createdAt,value
2022-10-21T00:00:41.259Z,93.09
2022-10-21T00:03:07.827Z,93.88
2022-10-21T00:05:37.619Z,96.13
2022-10-21T00:08:05.620Z,97.15
2022-10-21T00:10:32.268Z,99.83
2022-10-21T00:12:59.010Z,100.00
2022-10-21T00:15:25.582Z,99.97
2022-10-21T00:17:57.406Z,100.00
2022-10-21T00:20:26.382Z,99.76
2022-10-21T00:22:52.820Z,99.58
2022-10-21T00:25:19.419Z,98.72
2022-10-21T00:27:45.980Z,98.88
2022-10-21T00:30:13.171Z,98.29
2022-10-21T00:32:42.249Z,96.52
2022-10-21T00:35:09.246Z,96.87
2022-10-21T00:37:35.975Z,96.47
2022-10-21T00:40:03.173Z,97.85
2022-10-21T00:42:37.731Z,96.49
2022-10-21T00:45:05.142Z,96.04
2022-10-21T00:47:43.362Z,95.80
2022-10-21T00:50:19.983Z,95.76
2022-10-21T00:52:58.899Z,95.62
2022-10-21T00:55:26.291Z,97.19
2022-10-21T00:57:53.417Z,99.31
2022-10-21T01:00:20.012Z,100.00
2022-10-21T01:02:46.603Z,100.00
2022-10-21T01:05:13.564Z,100.00
2022-10-21T01:07:41.278Z,100.00
2022-10-21T01:10:08.968Z,100.00
2022-10-21T01:13:24.086Z,100.00
2022-10-21T01:16:10.965Z,100.00
2022-10-21T01:18:48.107Z,100.00
2022-10-21T01:21:26.312Z,100.00
2022-10-21T01:24:24.990Z,100.00
2022-10-21T01:26:58.023Z,100.00
2022-10-21T01:29:39.521Z,100.00
2022-10-21T01:32:41.662Z,100.00
2022-10-21T01:35:15.084Z,100.00
2022-10-21T01:38:36.099Z,100.00
2022-10-21T01:41:13.760Z,100.00
2022-10-21T01:43:59.128Z,100.00
2022-10-21T01:46:34.319Z,100.00
2022-10-21T01:49:08.214Z,100.00
2022-10-21T01:51:36.878Z,100.00
2022-10-21T01:54:17.741Z,100.00
2022-10-21T01:56:45.866Z,100.00
2022-10-21T01:59:13.265Z,100.00
2022-10-21T02:01:40.147Z,100.00
2022-10-21T02:04:08.813Z,100.00
2022-10-21T02:06:35.496Z,100.00
2022-10-21T02:09:02.155Z,100.00
2022-10-21T02:11:35.987Z,100.00
2022-10-21T02:14:04.198Z,100.00
2022-10-21T02:16:33.784Z,100.00
2022-10-21T02:19:01.539Z,100.00
2022-10-21T02:21:35.173Z,100.00
2022-10-21T02:24:07.553Z,100.00
2022-10-21T02:26:34.330Z,100.00
2022-10-21T02:29:01.558Z,100.00
2022-10-21T02:31:48.766Z,100.00
2022-10-21T02:34:30.570Z,100.00
2022-10-21T02:40:18.139Z,100.00
2022-10-21T02:42:47.384Z,100.00
2022-10-21T02:45:14.044Z,100.00
2022-10-21T02:47:40.741Z,100.00
2022-10-21T02:50:07.939Z,100.00
2022-10-21T02:52:36.704Z,100.00
2022-10-21T02:55:03.530Z,100.00
2022-10-21T02:57:30.220Z,100.00
2022-10-21T02:59:56.704Z,100.00
2022-10-21T03:02:23.235Z,100.00
2022-10-21T03:04:49.902Z,100.00
2022-10-21T03:07:16.531Z,100.00
2022-10-21T03:09:43.133Z,100.00
2022-10-21T03:12:09.652Z,100.00
2022-10-21T03:14:36.169Z,100.00
2022-10-21T03:17:02.754Z,100.00
2022-10-21T03:19:29.316Z,100.00
2022-10-21T03:21:55.792Z,100.00
2022-10-21T03:24:28.385Z,100.00
2022-10-21T03:26:56.166Z,100.00
2022-10-21T03:29:22.979Z,100.00
2022-10-21T03:31:49.659Z,100.00
2022-10-21T03:34:16.618Z,100.00
2022-10-21T03:36:43.161Z,100.00
2022-10-21T03:39:11.272Z,100.00
2022-10-21T03:41:37.846Z,100.00
2022-10-21T03:44:04.380Z,100.00
2022-10-21T03:46:30.839Z,100.00
2022-10-21T03:49:02.711Z,100.00
2022-10-21T03:51:32.298Z,100.00
2022-10-21T03:53:58.762Z,100.00
2022-10-21T03:56:25.220Z,100.00
2022-10-21T03:58:55.093Z,100.00
2022-10-21T04:01:24.940Z,100.00
2022-10-21T04:03:51.528Z,100.00
2022-10-21T04:06:18.120Z,100.00
2022-10-21T04:08:44.678Z,100.00
2022-10-21T04:11:11.445Z,100.00
2022-10-21T04:13:37.891Z,100.00
2022-10-21T04:16:06.850Z,100.00
2022-10-21T04:18:34.639Z,100.00
2022-10-21T04:21:01.340Z,100.00
2022-10-21T04:23:28.043Z,100.00
2022-10-21T04:25:54.479Z,100.00
2022-10-21T04:28:21.360Z,100.00
2022-10-21T04:30:50.020Z,100.00
2022-10-21T04:33:16.915Z,100.00
2022-10-21T04:35:43.402Z,100.00
2022-10-21T04:38:13.205Z,100.00
2022-10-21T04:40:40.008Z,100.00
2022-10-21T04:43:06.924Z,100.00
2022-10-21T04:45:33.552Z,100.00
2022-10-21T04:48:00.143Z,100.00
2022-10-21T04:50:27.137Z,100.00
2022-10-21T04:52:54.336Z,100.00
2022-10-21T04:55:20.834Z,100.00
2022-10-21T04:57:47.872Z,100.00
2022-10-21T05:00:14.741Z,100.00
2022-10-21T05:02:41.598Z,100.00
2022-10-21T05:05:08.747Z,100.00
2022-10-21T05:07:35.208Z,100.00
2022-10-21T05:10:01.721Z,100.00
2022-10-21T05:12:28.552Z,100.00
2022-10-21T05:14:55.599Z,100.00
2022-10-21T05:17:22.101Z,100.00
2022-10-21T05:19:53.656Z,100.00
2022-10-21T05:22:20.160Z,100.00
2022-10-21T05:24:46.703Z,100.00
2022-10-21T05:27:16.625Z,100.00
2022-10-21T05:29:43.070Z,100.00
2022-10-21T05:32:09.470Z,100.00
2022-10-21T05:34:35.958Z,100.00
2022-10-21T05:37:02.563Z,100.00
2022-10-21T05:39:29.212Z,100.00
2022-10-21T05:41:56.449Z,100.00
2022-10-21T05:44:23.282Z,100.00
2022-10-21T05:46:49.745Z,100.00
2022-10-21T05:49:16.551Z,100.00
2022-10-21T05:51:44.829Z,100.00
2022-10-21T05:54:11.325Z,100.00
2022-10-21T05:56:43.058Z,100.00
2022-10-21T05:59:10.361Z,100.00
2022-10-21T06:01:37.435Z,100.00
2022-10-21T06:04:04.194Z,100.00
2022-10-21T06:06:30.778Z,100.00
2022-10-21T06:08:57.407Z,100.00
2022-10-21T06:11:24.438Z,100.00
2022-10-21T06:13:50.916Z,100.00
2022-10-21T06:16:17.774Z,100.00
2022-10-21T06:18:44.798Z,100.00
2022-10-21T06:21:11.772Z,100.00
2022-10-21T06:23:39.282Z,100.00
2022-10-21T06:26:12.496Z,100.00
2022-10-21T06:28:40.838Z,100.00
2022-10-21T06:31:08.316Z,100.00
2022-10-21T06:33:35.239Z,100.00
2022-10-21T06:36:01.805Z,100.00
2022-10-21T06:38:28.889Z,100.00
2022-10-21T06:41:03.403Z,100.00
2022-10-21T06:43:30.049Z,100.00
2022-10-21T06:46:03.852Z,100.00
2022-10-21T06:48:31.966Z,100.00
2022-10-21T06:51:10.064Z,100.00
2022-10-21T06:53:39.084Z,100.00
2022-10-21T06:56:11.797Z,100.00
2022-10-21T06:58:39.977Z,100.00
2022-10-21T07:01:21.374Z,100.00
2022-10-21T07:03:57.366Z,100.00
2022-10-21T07:06:23.880Z,100.00
2022-10-21T07:08:57.933Z,100.00
2022-10-21T07:11:25.676Z,100.00
2022-10-21T07:13:52.162Z,100.00
2022-10-21T07:16:25.074Z,98.43
2022-10-21T07:18:52.301Z,98.41
2022-10-21T07:21:20.472Z,97.68
2022-10-21T07:23:49.208Z,94.63
2022-10-21T07:26:15.965Z,97.93
2022-10-21T07:28:46.973Z,99.67
2022-10-21T07:31:15.279Z,100.00
2022-10-21T07:33:42.028Z,100.00
2022-10-21T07:36:12.091Z,100.00
2022-10-21T07:38:41.223Z,100.00
2022-10-21T07:41:07.639Z,100.00
2022-10-21T07:43:34.313Z,100.00
2022-10-21T07:46:03.183Z,100.00
2022-10-21T07:48:33.994Z,100.00
2022-10-21T07:51:09.163Z,100.00
2022-10-21T07:53:35.801Z,100.00
2022-10-21T07:56:11.918Z,100.00
2022-10-21T07:58:38.772Z,100.00
2022-10-21T08:01:09.888Z,100.00
2022-10-21T08:03:42.734Z,100.00
2022-10-21T08:06:10.607Z,100.00
2022-10-21T08:08:37.284Z,100.00
2022-10-21T08:11:04.675Z,100.00
2022-10-21T08:13:31.930Z,100.00
2022-10-21T08:15:59.148Z,100.00
2022-10-21T08:18:26.358Z,100.00
2022-10-21T08:20:54.717Z,100.00
2022-10-21T08:23:23.207Z,100.00
2022-10-21T08:25:51.514Z,100.00
2022-10-21T08:28:19.014Z,100.00
2022-10-21T08:30:51.591Z,100.00
2022-10-21T08:33:18.514Z,100.00
2022-10-21T08:35:45.252Z,95.87
2022-10-21T08:38:11.955Z,88.12
2022-10-21T08:40:41.719Z,90.01
2022-10-21T08:43:32.276Z,91.57
2022-10-21T08:46:03.117Z,93.30
2022-10-21T08:49:08.558Z,92.92
2022-10-21T08:51:42.260Z,88.18
2022-10-21T08:54:38.990Z,81.96
2022-10-21T08:57:13.969Z,80.20
2022-10-21T08:59:43.442Z,77.36
2022-10-21T09:02:12.861Z,77.83
2022-10-21T09:05:16.551Z,78.55
2022-10-21T09:08:16.989Z,73.17
2022-10-21T09:11:03.135Z,71.92
2022-10-21T09:13:52.169Z,72.27
2022-10-21T09:16:37.412Z,74.47
2022-10-21T09:19:32.161Z,73.73
2022-10-21T09:22:38.289Z,77.62
2022-10-21T09:25:18.259Z,77.67
2022-10-21T09:27:55.450Z,80.63
2022-10-21T09:30:23.706Z,81.65
2022-10-21T09:32:53.634Z,76.69
2022-10-21T09:35:44.118Z,76.72
2022-10-21T09:38:12.796Z,78.06
2022-10-21T09:40:39.202Z,80.96
2022-10-21T09:43:06.149Z,80.30
2022-10-21T09:45:44.041Z,81.59
2022-10-21T09:48:20.010Z,82.92
2022-10-21T09:50:48.850Z,83.88
2022-10-21T09:53:22.646Z,84.06
2022-10-21T09:55:58.328Z,82.59
2022-10-21T09:58:37.927Z,79.47
2022-10-21T10:01:07.622Z,76.19
2022-10-21T10:03:36.427Z,78.31
2022-10-21T10:06:04.878Z,79.51
2022-10-21T10:08:31.411Z,76.18
2022-10-21T10:11:10.663Z,75.00
2022-10-21T10:13:44.751Z,74.43
2022-10-21T10:16:32.530Z,74.39
2022-10-21T10:19:28.563Z,71.31
2022-10-21T10:22:12.208Z,72.69
2022-10-21T10:24:40.731Z,76.70
2022-10-21T10:27:27.447Z,80.44
2022-10-21T10:29:56.350Z,83.92
2022-10-21T10:32:24.830Z,85.53
2022-10-21T10:34:56.170Z,87.87
2022-10-21T10:37:31.789Z,87.67
2022-10-21T10:39:59.440Z,88.96
2022-10-21T10:42:31.039Z,89.87
2022-10-21T10:45:00.756Z,88.76
2022-10-21T10:47:41.274Z,87.56
2022-10-21T10:50:42.292Z,87.58
2022-10-21T10:53:23.346Z,87.25
2022-10-21T10:56:24.652Z,88.31
2022-10-21T10:59:16.046Z,88.39
2022-10-21T11:02:14.648Z,87.51
2022-10-21T11:05:09.210Z,88.02
2022-10-21T11:07:54.513Z,86.41
2022-10-21T11:10:39.432Z,85.05
2022-10-21T11:13:12.775Z,81.48
2022-10-21T11:15:47.248Z,81.38
2022-10-21T11:18:25.857Z,83.27
2022-10-21T11:20:52.707Z,81.19
2022-10-21T11:23:39.252Z,81.36
2022-10-21T11:26:24.579Z,82.17
2022-10-21T11:28:57.780Z,83.84
2022-10-21T11:31:48.762Z,82.47
2022-10-21T11:34:45.282Z,83.32
2022-10-21T11:37:44.194Z,82.47
2022-10-21T11:40:23.983Z,83.29
2022-10-21T11:42:52.011Z,85.97
2022-10-21T11:45:37.088Z,86.02
2022-10-21T11:48:41.936Z,87.68
2022-10-21T11:51:30.292Z,87.28
2022-10-21T11:54:27.567Z,86.97
2022-10-21T11:57:02.826Z,88.08
2022-10-21T11:59:57.911Z,89.44
2022-10-21T12:02:39.618Z,87.72
2022-10-21T12:05:30.921Z,88.85
2022-10-21T12:08:20.162Z,87.26
2022-10-21T12:10:49.679Z,88.62
2022-10-21T12:13:26.640Z,90.35
2022-10-21T12:16:16.936Z,88.15
2022-10-21T12:18:48.478Z,91.69
2022-10-21T12:21:18.088Z,90.40
2022-10-21T12:23:45.251Z,90.51
2022-10-21T12:26:35.022Z,91.24
2022-10-21T12:29:24.823Z,91.76
2022-10-21T12:32:26.976Z,92.15
2022-10-21T12:34:53.880Z,90.81
2022-10-21T12:37:48.643Z,89.60
2022-10-21T12:40:19.434Z,91.24
2022-10-21T12:42:58.120Z,93.98
2022-10-21T12:45:29.692Z,97.08
2022-10-21T12:47:57.347Z,100.00
2022-10-21T12:50:31.836Z,100.00
2022-10-21T12:53:07.597Z,100.00
2022-10-21T12:55:39.827Z,100.00
2022-10-21T12:58:14.954Z,100.00
2022-10-21T13:00:44.462Z,100.00
2022-10-21T13:03:51.345Z,100.00
2022-10-21T13:06:51.547Z,100.00
2022-10-21T13:09:39.792Z,100.00
2022-10-21T13:12:10.351Z,100.00
2022-10-21T13:14:47.983Z,100.00
2022-10-21T13:17:20.663Z,100.00
2022-10-21T13:20:15.363Z,100.00
2022-10-21T13:22:43.402Z,100.00
2022-10-21T13:25:15.823Z,100.00
2022-10-21T13:27:45.907Z,100.00
2022-10-21T13:30:35.988Z,100.00
2022-10-21T13:33:22.341Z,100.00
2022-10-21T13:36:13.974Z,100.00
2022-10-21T13:38:51.738Z,100.00
2022-10-21T13:41:30.449Z,100.00
2022-10-21T13:43:59.548Z,100.00
2022-10-21T13:46:31.933Z,100.00
2022-10-21T13:49:01.396Z,100.00
2022-10-21T13:51:33.738Z,100.00
2022-10-21T13:54:09.953Z,100.00
2022-10-21T13:56:38.157Z,100.00
2022-10-21T13:59:05.940Z,100.00
2022-10-21T14:01:48.516Z,100.00
2022-10-21T14:04:19.709Z,100.00
2022-10-21T14:07:19.473Z,100.00
2022-10-21T14:09:47.619Z,100.00
2022-10-21T14:12:25.078Z,100.00
2022-10-21T14:14:54.289Z,100.00
2022-10-21T14:17:24.830Z,100.00
2022-10-21T14:19:54.610Z,100.00
2022-10-21T14:22:24.037Z,100.00
2022-10-21T14:24:58.259Z,100.00
2022-10-21T14:27:27.671Z,100.00
2022-10-21T14:29:55.032Z,100.00
2022-10-21T14:32:27.348Z,100.00
2022-10-21T14:34:57.079Z,100.00
2022-10-21T14:37:23.771Z,100.00
2022-10-21T14:39:50.270Z,100.00
2022-10-21T14:42:19.931Z,100.00
2022-10-21T14:44:47.441Z,100.00
2022-10-21T14:47:26.564Z,100.00
2022-10-21T14:49:55.682Z,100.00
2022-10-21T14:52:35.733Z,100.00
2022-10-21T14:55:07.579Z,100.00
2022-10-21T14:57:53.144Z,100.00
2022-10-21T15:00:22.268Z,100.00
2022-10-21T15:02:52.888Z,100.00
2022-10-21T15:05:37.959Z,100.00
2022-10-21T15:08:35.072Z,100.00
2022-10-21T15:11:04.619Z,100.00
2022-10-21T15:13:32.496Z,100.00
2022-10-21T15:16:18.908Z,100.00
2022-10-21T15:18:47.806Z,100.00
2022-10-21T15:21:25.651Z,100.00
2022-10-21T15:23:55.145Z,100.00
2022-10-21T15:26:31.133Z,100.00
2022-10-21T15:28:57.609Z,100.00
2022-10-21T15:31:26.316Z,100.00
2022-10-21T15:33:55.998Z,100.00
2022-10-21T15:36:24.012Z,100.00
2022-10-21T15:38:50.803Z,100.00
2022-10-21T15:41:20.182Z,100.00
2022-10-21T15:43:56.297Z,100.00
2022-10-21T15:46:24.710Z,100.00
2022-10-21T15:48:51.200Z,100.00
2022-10-21T15:51:17.652Z,100.00
2022-10-21T15:53:44.674Z,100.00
2022-10-21T15:56:15.448Z,100.00
2022-10-21T15:58:42.599Z,100.00
2022-10-21T16:01:14.199Z,100.00
2022-10-21T16:03:47.056Z,100.00
2022-10-21T16:06:18.683Z,100.00
2022-10-21T16:08:45.378Z,100.00
2022-10-21T16:11:25.570Z,100.00
2022-10-21T16:14:03.548Z,100.00
2022-10-21T16:16:30.105Z,100.00
2022-10-21T16:18:56.624Z,100.00
2022-10-21T16:21:23.423Z,100.00
2022-10-21T16:23:50.322Z,100.00
2022-10-21T16:26:22.311Z,100.00
2022-10-21T16:28:50.481Z,100.00
2022-10-21T16:31:17.243Z,100.00
2022-10-21T16:33:44.402Z,100.00
2022-10-21T16:36:16.946Z,100.00
2022-10-21T16:38:44.753Z,100.00
2022-10-21T16:41:13.266Z,100.00
2022-10-21T16:43:40.139Z,100.00
2022-10-21T16:46:12.779Z,100.00
2022-10-21T16:48:39.199Z,100.00
2022-10-21T16:51:05.878Z,100.00
2022-10-21T16:53:32.304Z,100.00
2022-10-21T16:55:58.771Z,100.00
2022-10-21T16:58:25.292Z,100.00
2022-10-21T17:00:52.891Z,100.00
2022-10-21T17:03:19.347Z,100.00
2022-10-21T17:05:46.862Z,100.00
2022-10-21T17:08:13.312Z,100.00
2022-10-21T17:10:39.791Z,100.00
2022-10-21T17:13:06.439Z,100.00
2022-10-21T17:15:32.919Z,100.00
2022-10-21T17:18:00.470Z,100.00
2022-10-21T17:20:33.833Z,100.00
2022-10-21T17:23:00.911Z,100.00
2022-10-21T17:25:28.884Z,100.00
2022-10-21T17:27:56.155Z,100.00
2022-10-21T17:30:23.022Z,100.00
2022-10-21T17:32:49.486Z,100.00
2022-10-21T17:35:18.834Z,100.00
2022-10-21T17:37:50.173Z,100.00
2022-10-21T17:40:19.738Z,100.00
2022-10-21T17:42:46.484Z,100.00
2022-10-21T17:45:13.914Z,100.00
2022-10-21T17:47:40.943Z,100.00
2022-10-21T17:50:09.052Z,100.00
2022-10-21T17:52:42.009Z,100.00
2022-10-21T17:55:08.891Z,100.00
2022-10-21T17:57:36.445Z,100.00
2022-10-21T18:00:04.637Z,100.00
2022-10-21T18:02:33.769Z,100.00
2022-10-21T18:05:00.835Z,100.00
2022-10-21T18:07:28.730Z,100.00
2022-10-21T18:09:55.470Z,100.00
2022-10-21T18:12:22.600Z,100.00
2022-10-21T18:14:49.453Z,100.00
2022-10-21T18:17:16.374Z,100.00
2022-10-21T18:19:46.462Z,100.00
2022-10-21T18:22:13.258Z,100.00
2022-10-21T18:24:40.228Z,100.00
2022-10-21T18:27:08.477Z,100.00
2022-10-21T18:29:35.162Z,100.00
2022-10-21T18:32:01.854Z,100.00
2022-10-21T18:34:28.679Z,100.00
2022-10-21T18:36:56.493Z,100.00
2022-10-21T18:39:23.218Z,100.00
2022-10-21T18:41:54.919Z,100.00
2022-10-21T18:44:23.743Z,100.00
2022-10-21T18:46:52.487Z,100.00
2022-10-21T18:52:02.531Z,100.00
2022-10-21T18:54:31.374Z,100.00
2022-10-21T18:56:58.905Z,100.00
2022-10-21T18:59:26.720Z,100.00
2022-10-21T19:01:54.775Z,100.00
2022-10-21T19:07:04.117Z,100.00
2022-10-21T19:09:38.988Z,100.00
2022-10-21T19:12:07.045Z,100.00
2022-10-21T19:14:35.604Z,100.00
2022-10-21T19:17:11.886Z,100.00
2022-10-21T19:19:39.569Z,100.00
2022-10-21T19:22:07.494Z,100.00
2022-10-21T19:24:40.451Z,100.00
2022-10-21T19:27:07.596Z,100.00
2022-10-21T19:29:42.357Z,100.00
2022-10-21T19:32:13.076Z,100.00
2022-10-21T19:34:39.875Z,100.00
2022-10-21T19:37:07.079Z,100.00
2022-10-21T19:39:33.537Z,100.00
2022-10-21T19:42:00.117Z,100.00
2022-10-21T19:44:26.849Z,100.00
2022-10-21T19:46:53.803Z,100.00
2022-10-21T19:49:23.393Z,100.00
2022-10-21T19:51:52.738Z,100.00
2022-10-21T19:54:19.318Z,100.00
2022-10-21T19:56:52.136Z,100.00
2022-10-21T19:59:23.197Z,100.00
2022-10-21T20:01:50.738Z,100.00
2022-10-21T20:04:18.329Z,100.00
2022-10-21T20:06:44.988Z,100.00
2022-10-21T20:09:15.037Z,100.00
2022-10-21T20:11:42.657Z,100.00
2022-10-21T20:14:12.057Z,100.00
2022-10-21T20:16:42.367Z,100.00
2022-10-21T20:19:11.306Z,100.00
2022-10-21T20:21:38.400Z,100.00
2022-10-21T20:24:05.505Z,100.00
2022-10-21T20:26:32.787Z,100.00
2022-10-21T20:29:01.817Z,100.00
2022-10-21T20:31:29.908Z,100.00
2022-10-21T20:33:58.379Z,100.00
2022-10-21T20:36:27.397Z,100.00
2022-10-21T20:39:04.019Z,100.00
2022-10-21T20:41:34.679Z,100.00
2022-10-21T20:44:04.171Z,100.00
2022-10-21T20:46:37.049Z,100.00
2022-10-21T20:49:09.605Z,100.00
2022-10-21T20:51:38.012Z,100.00
2022-10-21T20:54:08.446Z,100.00
2022-10-21T20:56:39.558Z,100.00
2022-10-21T20:59:07.628Z,100.00
2022-10-21T21:01:36.666Z,100.00
2022-10-21T21:04:05.677Z,100.00
2022-10-21T21:06:39.921Z,100.00
2022-10-21T21:09:43.496Z,100.00
2022-10-21T21:11:53.544Z,100.00
2022-10-21T21:14:20.447Z,100.00
2022-10-21T21:16:46.897Z,100.00
2022-10-21T21:19:13.731Z,100.00
2022-10-21T21:21:40.443Z,100.00
2022-10-21T21:24:07.111Z,100.00
2022-10-21T21:26:36.236Z,100.00
2022-10-21T21:29:06.088Z,100.00
2022-10-21T21:31:33.532Z,100.00
2022-10-21T21:34:00.113Z,100.00
2022-10-21T21:36:27.393Z,100.00
2022-10-21T21:38:54.194Z,100.00
2022-10-21T21:41:22.587Z,100.00
2022-10-21T21:43:51.350Z,100.00
2022-10-21T21:46:25.001Z,100.00
2022-10-21T21:48:55.331Z,100.00
2022-10-21T21:51:25.920Z,100.00
2022-10-21T21:53:52.729Z,100.00
2022-10-21T21:56:19.719Z,100.00
2022-10-21T21:58:47.810Z,100.00
2022-10-21T22:01:20.270Z,100.00
2022-10-21T22:03:49.097Z,100.00
2022-10-21T22:06:17.943Z,100.00
2022-10-21T22:08:45.118Z,100.00
2022-10-21T22:11:14.794Z,100.00
2022-10-21T22:13:41.581Z,100.00
2022-10-21T22:16:10.082Z,100.00
2022-10-21T22:18:36.986Z,100.00
2022-10-21T22:21:08.264Z,100.00
2022-10-21T22:23:35.628Z,100.00
2022-10-21T22:26:02.113Z,100.00
2022-10-21T22:28:29.334Z,100.00
2022-10-21T22:31:01.290Z,100.00
2022-10-21T22:33:28.946Z,100.00
2022-10-21T22:35:55.582Z,100.00
2022-10-21T22:38:22.303Z,100.00
2022-10-21T22:40:53.917Z,100.00
2022-10-21T22:43:20.756Z,100.00
2022-10-21T22:45:48.151Z,100.00
2022-10-21T22:48:15.440Z,100.00
2022-10-21T22:50:42.381Z,100.00
2022-10-21T22:53:09.387Z,100.00
2022-10-21T22:55:36.378Z,100.00
2022-10-21T22:58:03.011Z,100.00
2022-10-21T23:00:29.627Z,100.00
2022-10-21T23:02:56.555Z,100.00
2022-10-21T23:05:23.091Z,100.00
2022-10-21T23:07:49.550Z,100.00
2022-10-21T23:10:16.107Z,100.00
2022-10-21T23:12:42.766Z,100.00
2022-10-21T23:15:10.574Z,100.00
2022-10-21T23:17:37.667Z,100.00
2022-10-21T23:20:05.737Z,100.00
2022-10-21T23:22:33.096Z,100.00
2022-10-21T23:24:59.989Z,100.00
2022-10-21T23:27:28.007Z,100.00
2022-10-21T23:29:54.468Z,100.00
2022-10-21T23:32:21.146Z,100.00
2022-10-21T23:34:47.787Z,100.00
2022-10-21T23:37:14.694Z,100.00
2022-10-21T23:39:41.218Z,100.00
2022-10-21T23:42:07.718Z,100.00
2022-10-21T23:44:34.235Z,100.00
2022-10-21T23:47:00.817Z,100.00
2022-10-21T23:49:27.354Z,100.00
2022-10-21T23:51:53.854Z,100.00
2022-10-21T23:54:20.413Z,100.00
2022-10-21T23:56:46.962Z,100.00
2022-10-21T23:59:13.518Z,100.00
